Time;durP1;ratioP1;P1;durP2;ratioP2;P2;SDS_P1;SDS_P2;PMS_P1;PMS_P2;Temp;Humidity;BMP_temperature;BMP_pressure;BME280_temperature;BME280_humidity;BME280_pressure;Samples;Min_cycle;Max_cycle;Signal;HPM_P1;HPM_P2
2024/03/31 00:00:38;;;;;;;38.05;20.33;;;;;;;11.06;100.00;99259.00;4897945;29;20457;-84
2024/03/31 00:03:07;;;;;;;35.30;20.20;;;;;;;11.05;100.00;99259.91;4914713;29;20053;-85
2024/03/31 00:05:40;;;;;;;39.47;21.42;;;;;;;11.04;100.00;99259.06;4895807;29;20241;-85
2024/03/31 00:08:09;;;;;;;31.65;19.27;;;;;;;11.01;100.00;99258.31;4926593;29;20040;-87
2024/03/31 00:10:36;;;;;;;45.95;19.75;;;;;;;10.99;100.00;99263.59;4915633;29;20044;-85
2024/03/31 00:13:08;;;;;;;38.05;20.10;;;;;;;10.96;100.00;99266.28;4914073;29;20031;-87
2024/03/31 00:15:36;;;;;;;38.70;20.58;;;;;;;10.92;100.00;99276.03;4914200;29;20036;-84
2024/03/31 00:18:04;;;;;;;34.88;19.35;;;;;;;10.92;100.00;99299.59;4915201;29;20043;-83
2024/03/31 00:20:34;;;;;;;39.50;20.13;;;;;;;10.90;100.00;99305.78;4899363;29;20048;-86
2024/03/31 00:23:03;;;;;;;33.17;20.52;;;;;;;10.87;100.00;99317.22;4911844;29;20060;-83
2024/03/31 00:25:33;;;;;;;42.35;21.73;;;;;;;10.84;100.00;99298.97;4900242;29;20318;-83
2024/03/31 00:27:59;;;;;;;43.90;20.67;;;;;;;10.82;100.00;99307.78;4907835;29;20757;-86
2024/03/31 00:30:31;;;;;;;43.25;21.58;;;;;;;10.79;100.00;99302.66;4908976;29;20468;-86
2024/03/31 00:33:00;;;;;;;44.75;24.17;;;;;;;10.74;100.00;99293.19;4905994;29;20058;-85
2024/03/31 00:35:27;;;;;;;45.85;24.10;;;;;;;10.69;100.00;99289.84;4897980;29;20044;-88
2024/03/31 00:37:56;;;;;;;40.10;22.85;;;;;;;10.66;100.00;99295.16;4898339;29;20048;-83
2024/03/31 00:40:36;;;;;;;37.38;22.50;;;;;;;10.63;100.00;99297.88;4918688;29;20059;-84
2024/03/31 00:43:12;;;;;;;47.50;23.77;;;;;;;10.61;100.00;99301.44;4914722;29;20048;-87
2024/03/31 00:45:43;;;;;;;42.53;23.50;;;;;;;10.57;100.00;99298.94;4915772;29;20083;-87
2024/03/31 00:48:12;;;;;;;46.15;24.25;;;;;;;10.54;100.00;99285.94;4918600;29;20120;-87
2024/03/31 00:50:39;;;;;;;40.55;23.17;;;;;;;10.51;100.00;99286.03;4914427;29;20040;-87
2024/03/31 00:53:05;;;;;;;49.33;22.45;;;;;;;10.49;100.00;99287.00;4899974;29;20092;-88
2024/03/31 00:55:33;;;;;;;40.95;23.02;;;;;;;10.44;100.00;99279.28;4901326;29;20044;-84
2024/03/31 00:58:01;;;;;;;41.05;22.92;;;;;;;10.42;100.00;99266.25;4922016;29;20056;-87
2024/03/31 01:00:32;;;;;;;42.90;23.25;;;;;;;10.39;100.00;99268.97;4914329;29;20040;-85
2024/03/31 01:02:59;;;;;;;37.65;21.63;;;;;;;10.37;100.00;99255.06;4923024;29;20056;-88
2024/03/31 01:05:26;;;;;;;37.50;23.95;;;;;;;10.35;100.00;99263.81;4936489;29;20044;-88
2024/03/31 01:07:54;;;;;;;49.70;23.98;;;;;;;10.32;100.00;99259.53;4897829;29;20060;-87
2024/03/31 01:10:22;;;;;;;42.28;21.52;;;;;;;10.33;100.00;99257.81;4918021;29;20437;-88
2024/03/31 01:12:48;;;;;;;35.22;22.50;;;;;;;10.31;100.00;99249.13;4902228;29;20052;-87
2024/03/31 01:15:15;;;;;;;42.63;22.08;;;;;;;10.30;100.00;99250.03;4897741;29;20167;-87
2024/03/31 01:17:44;;;;;;;40.67;23.08;;;;;;;10.30;100.00;99250.03;4898814;29;20068;-83
2024/03/31 01:20:14;;;;;;;46.33;24.02;;;;;;;10.27;100.00;99261.44;4917642;28;20046;-89
2024/03/31 01:22:42;;;;;;;41.60;23.40;;;;;;;10.24;100.00;99261.53;4920588;29;20044;-85
2024/03/31 01:25:11;;;;;;;42.17;24.10;;;;;;;10.22;100.00;99255.50;4917669;29;20110;-89
2024/03/31 01:27:37;;;;;;;46.15;25.60;;;;;;;10.20;100.00;99263.38;4917476;29;20040;-85
2024/03/31 01:30:05;;;;;;;45.78;24.70;;;;;;;10.20;100.00;99254.69;4895120;29;20052;-85
2024/03/31 01:32:32;;;;;;;49.15;27.73;;;;;;;10.16;100.00;99259.16;4915939;29;20032;-87
2024/03/31 01:35:02;;;;;;;43.90;24.55;;;;;;;10.15;100.00;99262.66;4915239;29;20297;-84
2024/03/31 01:37:31;;;;;;;43.70;23.55;;;;;;;10.12;100.00;99277.56;4922697;29;20052;-86
2024/03/31 01:40:01;;;;;;;40.13;26.77;;;;;;;10.09;100.00;99276.78;4907145;29;20052;-86
2024/03/31 01:42:28;;;;;;;47.20;25.10;;;;;;;10.07;100.00;99291.66;4893322;29;20074;-88
2024/03/31 01:45:00;;;;;;;40.67;24.35;;;;;;;10.03;100.00;99299.63;4896088;29;20075;-85
2024/03/31 01:47:32;;;;;;;43.10;24.40;;;;;;;9.98;100.00;99301.53;4916197;29;20063;-85
2024/03/31 01:49:59;;;;;;;48.60;27.73;;;;;;;9.96;100.00;99303.31;4890504;29;20048;-87
2024/03/31 01:52:26;;;;;;;47.42;27.10;;;;;;;9.94;100.00;99298.13;4901135;29;20045;-89
2024/03/31 01:54:53;;;;;;;44.58;26.13;;;;;;;9.93;100.00;99293.81;4919512;29;20047;-86
2024/03/31 01:57:22;;;;;;;43.25;24.85;;;;;;;9.90;100.00;99296.50;4900020;29;20128;-84
2024/03/31 01:59:50;;;;;;;47.58;25.55;;;;;;;9.87;100.00;99305.28;4900724;29;20040;-87
2024/03/31 02:02:21;;;;;;;41.85;23.63;;;;;;;9.85;100.00;99301.84;4888015;29;20081;-87
2024/03/31 02:04:51;;;;;;;46.53;25.33;;;;;;;9.85;100.00;99294.00;4899904;29;20658;-88
2024/03/31 02:07:17;;;;;;;46.42;25.67;;;;;;;9.85;100.00;99295.78;4878889;29;20037;-86
2024/03/31 02:09:44;;;;;;;47.30;25.00;;;;;;;9.87;100.00;99301.84;4879305;29;20040;-86
2024/03/31 02:12:24;;;;;;;35.22;22.90;;;;;;;9.87;100.00;99307.91;4904949;29;20052;-85
2024/03/31 02:14:53;;;;;;;41.47;24.02;;;;;;;9.87;100.00;99307.91;4891270;29;20052;-86
2024/03/31 02:17:22;;;;;;;40.53;22.42;;;;;;;9.88;100.00;99312.25;4896947;29;20056;-85
2024/03/31 02:19:55;;;;;;;37.88;23.60;;;;;;;9.90;100.00;99310.44;4908784;29;20063;-87
2024/03/31 02:22:22;;;;;;;34.22;23.02;;;;;;;9.90;100.00;99302.59;4898822;29;20044;-85
2024/03/31 02:24:51;;;;;;;39.83;24.27;;;;;;;9.89;100.00;99303.47;4884922;29;20043;-84
2024/03/31 02:27:27;;;;;;;39.05;24.27;;;;;;;9.88;100.00;99304.41;4902801;29;20512;-85
2024/03/31 02:29:55;;;;;;;37.47;25.23;;;;;;;9.89;100.00;99294.78;4889524;29;20053;-85
2024/03/31 02:32:23;;;;;;;45.95;24.83;;;;;;;9.89;100.00;99297.41;4883192;29;20102;-85
2024/03/31 02:34:53;;;;;;;47.15;26.02;;;;;;;9.88;100.00;99303.53;4887817;29;20052;-83
2024/03/31 02:37:27;;;;;;;43.65;24.40;;;;;;;9.85;100.00;99304.47;4904648;29;20044;-86
2024/03/31 02:40:00;;;;;;;45.53;25.20;;;;;;;9.84;100.00;99314.97;4898197;29;20048;-85
2024/03/31 02:42:30;;;;;;;41.20;24.88;;;;;;;9.80;100.00;99315.97;4920560;29;20072;-86
2024/03/31 02:45:02;;;;;;;38.00;24.65;;;;;;;9.76;100.00;99326.50;4898560;29;20048;-83
2024/03/31 02:47:29;;;;;;;39.30;24.67;;;;;;;9.68;100.00;99314.53;4922459;29;20044;-86
2024/03/31 02:50:01;;;;;;;37.25;23.13;;;;;;;9.64;100.00;99316.38;4916579;29;20056;-85
2024/03/31 02:52:31;;;;;;;40.70;24.75;;;;;;;9.60;100.00;99323.41;4914344;29;20023;-85
2024/03/31 02:55:00;;;;;;;37.13;24.92;;;;;;;9.57;100.00;99320.06;4921881;29;20119;-88
2024/03/31 02:57:39;;;;;;;42.53;24.38;;;;;;;9.53;100.00;99327.13;4917820;29;20051;-83
2024/03/31 03:00:15;;;;;;;37.15;24.08;;;;;;;9.51;100.00;99330.66;4927015;29;20044;-84
2024/03/31 03:02:48;;;;;;;34.70;22.77;;;;;;;9.48;100.00;99321.16;4925106;29;20040;-84
2024/03/31 03:05:16;;;;;;;38.28;24.17;;;;;;;9.44;100.00;99316.91;4898994;29;20051;-84
2024/03/31 03:07:43;;;;;;;40.63;25.27;;;;;;;9.44;100.00;99327.34;4917714;29;20052;-87
2024/03/31 03:10:10;;;;;;;43.85;24.80;;;;;;;9.42;100.00;99331.75;4899216;29;20054;-86
2024/03/31 03:12:41;;;;;;;36.58;22.10;;;;;;;9.39;100.00;99324.84;4906109;29;20031;-85
2024/03/31 03:15:19;;;;;;;;;;;;;;;9.37;100.00;99320.56;4905628;29;20036;-84
2024/03/31 03:17:56;;;;;;;37.10;23.80;;;;;;;9.31;100.00;99326.81;4905204;29;19927;-85
2024/03/31 03:20:26;;;;;;;37.50;23.75;;;;;;;9.30;100.00;99322.47;4916177;29;20080;-88
2024/03/31 03:23:01;;;;;;;33.25;21.90;;;;;;;9.26;100.00;99336.50;4914108;29;20047;-85
2024/03/31 03:25:27;;;;;;;40.97;24.37;;;;;;;9.22;100.00;99343.53;4903976;29;20048;-87
2024/03/31 03:27:55;;;;;;;39.05;22.83;;;;;;;9.22;100.00;99332.25;4914466;29;20305;-88
2024/03/31 03:30:24;;;;;;;35.92;23.33;;;;;;;9.21;100.00;99334.00;4916303;29;20040;-84
2024/03/31 03:32:56;;;;;;;36.40;23.33;;;;;;;9.22;100.00;99337.47;4916127;29;20508;-89
2024/03/31 03:35:25;;;;;;;35.83;23.45;;;;;;;9.20;100.00;99337.50;4925452;29;20078;-88
2024/03/31 03:37:52;;;;;;;41.45;24.20;;;;;;;9.17;100.00;99334.97;4932872;29;20080;-86
2024/03/31 03:40:24;;;;;;;36.03;23.77;;;;;;;9.17;100.00;99340.19;4912333;29;20070;-86
2024/03/31 03:42:54;;;;;;;44.63;25.23;;;;;;;9.17;100.00;99334.97;4896847;29;20088;-88
2024/03/31 03:45:22;;;;;;;33.30;23.40;;;;;;;9.15;100.00;99330.69;4914111;29;20051;-84
2024/03/31 03:47:49;;;;;;;37.03;24.05;;;;;;;9.14;100.00;99344.63;4911892;29;20044;-86
2024/03/31 03:50:16;;;;;;;41.13;25.30;;;;;;;9.10;100.00;99344.72;4896010;29;20048;-83
2024/03/31 03:52:42;;;;;;;40.95;24.60;;;;;;;9.11;100.00;99342.94;4897885;29;20047;-86
2024/03/31 03:55:09;;;;;;;37.72;25.27;;;;;;;9.13;100.00;99341.16;4915175;29;20052;-85
2024/03/31 03:57:36;;;;;;;40.53;24.77;;;;;;;9.14;100.00;99348.09;4910395;29;20043;-85
2024/03/31 04:00:12;;;;;;;36.55;24.20;;;;;;;9.13;100.00;99341.16;4900342;29;20100;-83
2024/03/31 04:02:38;;;;;;;40.28;24.90;;;;;;;9.17;100.00;99349.78;4895716;29;20027;-85
2024/03/31 04:05:05;;;;;;;35.60;24.10;;;;;;;9.16;100.00;99348.06;4911436;29;20054;-83
2024/03/31 04:07:31;;;;;;;37.92;23.48;;;;;;;9.19;100.00;99350.59;4897002;29;20614;-84
2024/03/31 04:10:03;;;;;;;36.88;23.02;;;;;;;9.18;100.00;99341.91;4897266;29;20052;-85
2024/03/31 04:12:35;;;;;;;36.33;23.83;;;;;;;9.18;100.00;99339.31;4916372;29;20071;-86
2024/03/31 04:15:05;;;;;;;39.38;24.80;;;;;;;9.18;100.00;99334.06;4912209;29;20128;-84
2024/03/31 04:17:34;;;;;;;39.35;23.92;;;;;;;9.19;100.00;99335.81;4911447;29;20107;-85
2024/03/31 04:20:05;;;;;;;41.15;24.45;;;;;;;9.19;100.00;99322.75;4915083;29;20044;-87
2024/03/31 04:22:34;;;;;;;;;;;;;;;9.22;100.00;99319.19;4918289;29;20048;-86
2024/03/31 04:25:01;;;;;;;37.95;25.35;;;;;;;9.22;100.00;99317.44;4914700;29;19931;-86
2024/03/31 04:27:30;;;;;;;40.80;24.65;;;;;;;9.22;100.00;99327.03;4917723;29;20161;-85
2024/03/31 04:29:57;;;;;;;34.85;23.42;;;;;;;9.23;100.00;99321.78;4934344;29;20055;-85
2024/03/31 04:32:24;;;;;;;36.30;22.52;;;;;;;9.23;100.00;99311.31;4906634;29;20059;-87
2024/03/31 04:34:56;;;;;;;40.83;25.20;;;;;;;9.25;100.00;99322.56;4901803;29;20441;-86
2024/03/31 04:37:24;;;;;;;37.15;24.70;;;;;;;9.22;100.00;99332.25;4915915;29;20063;-88
2024/03/31 04:39:52;;;;;;;40.10;27.08;;;;;;;9.22;100.00;99340.09;4887678;29;20056;-84
2024/03/31 04:42:18;;;;;;;37.10;23.83;;;;;;;9.20;100.00;99345.31;4885688;29;20040;-85
2024/03/31 04:44:45;;;;;;;42.92;23.25;;;;;;;9.16;100.00;99341.06;4896912;29;20052;-86
2024/03/31 04:47:11;;;;;;;40.78;24.50;;;;;;;9.18;100.00;99344.53;4897259;29;20056;-89
2024/03/31 04:49:42;;;;;;;36.80;23.42;;;;;;;9.22;100.00;99345.31;4897903;29;20049;-85
2024/03/31 04:52:08;;;;;;;35.47;23.30;;;;;;;9.20;100.00;99334.03;4889948;29;20152;-84
2024/03/31 04:54:36;;;;;;;38.30;24.02;;;;;;;9.21;100.00;99335.75;4878261;29;20548;-84
2024/03/31 04:57:02;;;;;;;36.63;23.25;;;;;;;9.23;100.00;99341.78;4883323;29;20331;-89
2024/03/31 04:59:29;;;;;;;34.53;23.23;;;;;;;9.22;100.00;99342.69;4899847;29;20044;-88
2024/03/31 05:01:57;;;;;;;36.70;22.05;;;;;;;9.19;100.00;99338.41;4896355;29;20052;-84
2024/03/31 05:04:28;;;;;;;35.75;22.85;;;;;;;9.19;100.00;99346.25;4903361;29;20044;-84
2024/03/31 05:06:56;;;;;;;34.78;22.33;;;;;;;9.18;100.00;99343.69;4887238;29;20116;-87
2024/03/31 05:09:23;;;;;;;31.45;21.75;;;;;;;9.21;100.00;99340.97;4892815;29;20076;-90
2024/03/31 05:11:56;;;;;;;35.15;23.25;;;;;;;9.22;100.00;99330.50;4899624;29;20151;-85
2024/03/31 05:14:26;;;;;;;35.20;23.92;;;;;;;9.23;100.00;99331.34;4902484;29;20045;-87
2024/03/31 05:16:59;;;;;;;36.80;25.17;;;;;;;9.23;100.00;99327.00;4887398;29;20059;-83
2024/03/31 05:19:29;;;;;;;31.92;22.08;;;;;;;9.26;100.00;99324.28;4884919;29;20191;-86
2024/03/31 05:21:57;;;;;;;37.05;23.20;;;;;;;9.29;100.00;99330.34;4918290;29;20092;-84
2024/03/31 05:24:28;;;;;;;40.00;25.52;;;;;;;9.29;100.00;99332.97;4889574;29;20040;-85
2024/03/31 05:26:54;;;;;;;41.78;26.73;;;;;;;9.29;100.00;99325.97;4905343;29;20060;-84
2024/03/31 05:29:26;;;;;;;39.15;23.58;;;;;;;9.27;100.00;99326.00;4891868;29;20068;-88
2024/03/31 05:31:54;;;;;;;35.22;24.77;;;;;;;9.30;100.00;99311.19;4900409;29;20056;-89
2024/03/31 05:34:21;;;;;;;35.45;25.35;;;;;;;9.35;100.00;99317.16;4908433;29;20109;-87
2024/03/31 05:36:49;;;;;;;39.83;26.50;;;;;;;9.31;100.00;99312.88;4885110;29;20036;-88
2024/03/31 05:39:23;;;;;;;40.80;26.67;;;;;;;9.31;100.00;99313.75;4907195;29;20058;-87
2024/03/31 05:41:49;;;;;;;36.55;26.33;;;;;;;9.30;100.00;99309.41;4912590;29;20051;-87
2024/03/31 05:44:16;;;;;;;39.88;27.38;;;;;;;9.22;100.00;99303.53;4914145;29;20397;-86
2024/03/31 05:46:42;;;;;;;40.25;25.55;;;;;;;9.21;100.00;99297.44;4910633;29;20051;-87
2024/03/31 05:49:08;;;;;;;36.55;25.45;;;;;;;9.24;100.00;99296.50;4895089;29;20435;-87
2024/03/31 05:51:34;;;;;;;36.10;26.05;;;;;;;9.23;100.00;99287.81;4894072;28;20051;-88
2024/03/31 05:54:00;;;;;;;35.03;25.20;;;;;;;9.23;100.00;99295.66;4906837;29;20062;-84
2024/03/31 05:56:27;;;;;;;38.65;25.73;;;;;;;9.29;100.00;99312.91;4898858;29;20071;-84
2024/03/31 05:58:53;;;;;;;35.50;24.65;;;;;;;9.31;100.00;99332.03;4910757;29;20040;-85
2024/03/31 06:01:22;;;;;;;41.47;26.60;;;;;;;9.31;100.00;99325.94;4888546;29;20048;-87
2024/03/31 06:03:48;;;;;;;39.58;26.63;;;;;;;9.23;100.00;99329.59;4894481;29;20524;-89
2024/03/31 06:06:15;;;;;;;42.40;28.13;;;;;;;9.22;100.00;99333.09;4928786;29;20048;-87
2024/03/31 06:08:41;;;;;;;42.17;26.48;;;;;;;9.27;100.00;99328.63;4907534;29;20060;-90
2024/03/31 06:11:07;;;;;;;34.67;26.63;;;;;;;9.30;100.00;99326.84;4905952;29;20048;-84
2024/03/31 06:13:33;;;;;;;42.28;27.05;;;;;;;9.30;100.00;99330.31;4912144;29;20048;-89
2024/03/31 06:16:14;;;;;;;44.00;25.65;;;;;;;9.37;100.00;99328.38;4896074;29;20133;-85
2024/03/31 06:18:39;;;;;;;39.55;27.77;;;;;;;9.40;100.00;99325.72;4900014;29;20068;-89
2024/03/31 06:21:07;;;;;;;40.78;26.55;;;;;;;9.39;100.00;99332.69;4910967;29;20088;-89
2024/03/31 06:23:35;;;;;;;47.88;28.73;;;;;;;9.42;100.00;99347.41;4911652;29;20130;-88
2024/03/31 06:26:03;;;;;;;45.83;29.27;;;;;;;9.30;100.00;99345.13;4906328;29;20831;-88
2024/03/31 06:28:28;;;;;;;42.05;27.08;;;;;;;9.28;100.00;99345.13;4907752;29;20059;-83
2024/03/31 06:30:55;;;;;;;40.75;28.40;;;;;;;9.37;100.00;99349.28;4888964;29;20437;-90
2024/03/31 06:33:21;;;;;;;46.30;30.48;;;;;;;9.36;100.00;99338.00;4911269;29;20051;-88
2024/03/31 06:35:50;;;;;;;45.58;31.35;;;;;;;9.33;100.00;99343.28;4886907;29;20191;-88
2024/03/31 06:38:16;;;;;;;46.30;31.98;;;;;;;9.36;100.00;99343.22;4905960;29;20052;-87
2024/03/31 06:40:43;;;;;;;44.20;30.48;;;;;;;9.38;100.00;99340.56;4907451;29;20099;-85
2024/03/31 06:43:09;;;;;;;51.63;32.33;;;;;;;9.38;100.00;99338.78;4922233;29;20052;-88
2024/03/31 06:45:36;;;;;;;42.97;30.08;;;;;;;9.40;100.00;99339.63;4929498;29;20116;-89
2024/03/31 06:48:02;;;;;;;40.50;29.58;;;;;;;9.43;100.00;99336.06;4904345;29;20070;-87
2024/03/31 06:50:28;;;;;;;45.42;31.42;;;;;;;9.45;100.00;99339.50;4908354;29;20095;-89
2024/03/31 06:52:55;;;;;;;45.75;31.10;;;;;;;9.46;100.00;99346.44;4897031;29;20111;-86
2024/03/31 06:55:25;;;;;;;44.97;28.75;;;;;;;9.53;100.00;99336.69;4909039;29;20107;-89
2024/03/31 06:57:52;;;;;;;46.67;32.50;;;;;;;9.57;100.00;99333.97;4915916;29;20519;-84
2024/03/31 07:00:18;;;;;;;50.08;31.27;;;;;;;9.62;100.00;99332.97;4932161;29;20496;-85
2024/03/31 07:02:48;;;;;;;42.33;32.58;;;;;;;9.67;100.00;99337.19;4903523;29;20055;-87
2024/03/31 07:05:15;;;;;;;56.38;34.60;;;;;;;9.65;100.00;99336.38;4903114;29;20092;-87
2024/03/31 07:07:42;;;;;;;53.53;37.33;;;;;;;9.60;100.00;99344.31;4903536;29;20412;-90
2024/03/31 07:10:09;;;;;;;52.97;35.10;;;;;;;9.60;100.00;99338.25;4924160;29;20541;-85
2024/03/31 07:12:34;;;;;;;51.13;36.17;;;;;;;9.59;100.00;99347.88;4889640;29;20135;-86
2024/03/31 07:15:04;;;;;;;53.33;37.22;;;;;;;9.64;100.00;99352.09;4904765;29;20074;-88
2024/03/31 07:17:34;;;;;;;58.67;41.70;;;;;;;9.69;100.00;99361.53;4906206;29;20052;-89
2024/03/31 07:20:00;;;;;;;52.70;39.17;;;;;;;9.72;100.00;99357.97;4902530;29;20435;-86
2024/03/31 07:22:27;;;;;;;61.20;41.65;;;;;;;9.71;100.00;99361.47;4918909;29;20040;-90
2024/03/31 07:24:52;;;;;;;57.60;41.53;;;;;;;9.65;100.00;99372.97;4909570;29;20131;-89
2024/03/31 07:27:19;;;;;;;59.70;43.05;;;;;;;9.63;100.00;99371.28;4910910;29;20069;-89
2024/03/31 07:29:45;;;;;;;54.78;38.13;;;;;;;9.63;100.00;99376.50;4911286;29;20031;-87
2024/03/31 07:32:11;;;;;;;53.55;36.28;;;;;;;9.70;100.00;99381.53;4906101;29;20103;-83
2024/03/31 07:34:37;;;;;;;52.85;38.35;;;;;;;9.73;100.00;99380.59;4913970;29;20116;-85
2024/03/31 07:37:04;;;;;;;50.35;35.53;;;;;;;9.74;100.00;99390.16;4924457;29;20062;-90
2024/03/31 07:39:29;;;;;;;55.35;36.88;;;;;;;9.75;100.00;99392.72;4909738;29;20114;-87
2024/03/31 07:41:57;;;;;;;52.33;38.95;;;;;;;9.71;100.00;99383.25;4891710;29;20052;-88
2024/03/31 07:44:25;;;;;;;52.28;38.50;;;;;;;9.67;100.00;99386.81;4892371;29;20048;-86
2024/03/31 07:46:52;;;;;;;51.67;35.28;;;;;;;9.58;100.00;99390.56;4909054;29;20059;-88
2024/03/31 07:49:18;;;;;;;53.58;35.50;;;;;;;9.54;100.00;99388.91;4896012;29;20047;-89
2024/03/31 07:51:48;;;;;;;48.45;34.67;;;;;;;9.48;100.00;99389.06;4875362;29;20131;-85
2024/03/31 07:54:15;;;;;;;42.28;32.03;;;;;;;9.42;100.00;99387.44;4909390;29;20076;-85
2024/03/31 07:56:44;;;;;;;50.90;35.58;;;;;;;9.41;100.00;99392.72;4918578;29;20044;-86
2024/03/31 07:59:32;;;;;;;47.88;33.42;;;;;;;9.38;100.00;99396.25;4929075;29;20041;-87
2024/03/31 08:02:00;;;;;;;41.40;31.90;;;;;;;9.43;100.00;99404.00;4910481;29;20563;-84
2024/03/31 08:04:26;;;;;;;42.05;33.17;;;;;;;9.47;100.00;99400.41;4896129;29;20044;-84
2024/03/31 08:06:54;;;;;;;47.90;33.97;;;;;;;9.46;100.00;99406.50;4914272;29;20052;-88
2024/03/31 08:09:21;;;;;;;46.47;34.80;;;;;;;9.42;100.00;99404.88;4910498;29;20052;-87
2024/03/31 08:11:56;;;;;;;49.75;36.50;;;;;;;9.39;100.00;99415.41;4901172;29;20069;-85
2024/03/31 08:14:26;;;;;;;52.10;36.70;;;;;;;9.30;100.00;99423.47;4910345;29;20036;-85
2024/03/31 08:16:54;;;;;;;41.65;33.25;;;;;;;9.27;100.00;99422.63;4920930;29;20044;-86
2024/03/31 08:19:25;;;;;;;52.08;35.65;;;;;;;9.31;100.00;99427.78;4933648;29;20044;-85
2024/03/31 08:21:54;;;;;;;53.33;37.30;;;;;;;9.38;100.00;99429.34;4914623;29;20082;-86
2024/03/31 08:24:21;;;;;;;44.92;34.40;;;;;;;9.41;100.00;99431.88;4912553;29;20040;-83
2024/03/31 08:26:55;;;;;;;56.97;36.95;;;;;;;9.40;100.00;99438.03;4915818;29;20083;-83
2024/03/31 08:29:21;;;;;;;48.97;36.95;;;;;;;9.42;100.00;99428.38;4906895;29;20055;-85
2024/03/31 08:31:53;;;;;;;53.45;38.35;;;;;;;9.41;100.00;99430.16;4914297;29;20096;-82
2024/03/31 08:34:33;;;;;;;52.05;37.85;;;;;;;9.51;100.00;99424.69;4919525;29;20040;-83
2024/03/31 08:37:12;;;;;;;55.38;39.78;;;;;;;9.54;100.00;99424.63;4908887;29;20055;-83
2024/03/31 08:39:39;;;;;;;53.63;36.45;;;;;;;9.63;100.00;99418.31;4896032;29;20788;-85
2024/03/31 08:42:22;;;;;;;52.15;38.80;;;;;;;9.73;100.00;99415.41;4924726;29;20055;-86
2024/03/31 08:44:53;;;;;;;51.97;39.67;;;;;;;9.82;100.00;99422.19;4916141;29;20043;-86
2024/03/31 08:47:31;;;;;;;57.03;41.78;;;;;;;9.89;100.00;99415.88;4905620;29;20086;-85
2024/03/31 08:49:59;;;;;;;53.15;39.72;;;;;;;9.99;100.00;99424.34;4897015;29;20043;-86
2024/03/31 08:52:28;;;;;;;54.10;38.53;;;;;;;10.08;100.00;99415.41;4890915;29;20072;-86
2024/03/31 08:54:57;;;;;;;59.40;41.65;;;;;;;10.17;100.00;99420.41;4911522;29;20135;-85
2024/03/31 08:57:32;;;;;;;63.60;44.97;;;;;;;10.20;100.00;99422.91;4891993;29;20039;-85
2024/03/31 08:59:58;;;;;;;60.42;42.72;;;;;;;10.33;100.00;99414.75;4904816;29;20052;-85
2024/03/31 09:02:41;;;;;;;54.67;39.75;;;;;;;10.53;100.00;99417.69;4910196;29;20050;-84
2024/03/31 09:05:08;;;;;;;57.93;41.53;;;;;;;10.72;100.00;99409.31;4904792;29;20316;-85
2024/03/31 09:07:43;;;;;;;56.60;41.20;;;;;;;11.04;100.00;99408.31;4899825;29;20095;-85
2024/03/31 09:10:19;;;;;;;;;;;;;;;11.31;100.00;99407.50;4922662;29;20040;-84
2024/03/31 09:16:00;;;;;;;52.20;38.60;;;;;;;11.30;100.00;99403.16;4898336;29;20080;-84
2024/03/31 09:18:25;;;;;;;56.03;41.53;;;;;;;11.32;100.00;99398.75;4905664;29;20048;-85
2024/03/31 09:20:57;;;;;;;56.53;42.10;;;;;;;11.41;100.00;99399.28;4906663;29;20047;-86
2024/03/31 09:23:24;;;;;;;55.15;40.55;;;;;;;11.42;100.00;99394.91;4924258;29;20082;-87
2024/03/31 09:25:53;;;;;;;54.00;42.08;;;;;;;11.44;100.00;99387.84;4911176;29;20532;-89
2024/03/31 09:28:19;;;;;;;48.90;38.28;;;;;;;10.98;100.00;99386.72;4891634;29;20515;-88
2024/03/31 09:30:51;;;;;;;51.75;40.45;;;;;;;11.08;100.00;99390.72;4891856;29;20044;-86
2024/03/31 09:33:17;;;;;;;55.63;42.10;;;;;;;10.88;100.00;99389.59;4899899;29;20044;-87
2024/03/31 09:35:46;;;;;;;56.00;42.10;;;;;;;10.92;100.00;99392.97;4907102;29;20415;-88
2024/03/31 09:38:12;;;;;;;59.50;42.70;;;;;;;10.68;100.00;99391.97;4908823;29;20044;-89
2024/03/31 09:40:40;;;;;;;53.13;41.15;;;;;;;10.70;100.00;99392.78;4902069;29;20039;-85
2024/03/31 09:43:06;;;;;;;59.00;42.75;;;;;;;10.59;100.00;99399.19;4906275;29;20040;-89
2024/03/31 09:45:32;;;;;;;54.17;42.33;;;;;;;10.57;100.00;99398.38;4922015;29;20059;-86
2024/03/31 09:48:07;;;;;;;53.28;40.28;;;;;;;10.63;100.00;99393.88;4886957;29;20047;-86
2024/03/31 09:50:43;;;;;;;50.40;42.42;;;;;;;10.58;100.00;99388.75;4890776;29;20131;-85
2024/03/31 09:53:23;;;;;;;50.60;41.05;;;;;;;10.47;100.00;99385.59;4929224;29;20052;-86
2024/03/31 09:56:04;;;;;;;57.05;43.38;;;;;;;10.48;100.00;99382.06;4889767;29;20741;-86
2024/03/31 09:58:34;;;;;;;60.53;44.50;;;;;;;10.56;100.00;99373.09;4906369;29;20066;-87
2024/03/31 10:01:07;;;;;;;53.63;42.15;;;;;;;10.70;100.00;99374.44;4901048;29;20140;-87
2024/03/31 10:03:35;;;;;;;59.70;44.83;;;;;;;10.73;100.00;99371.75;4888161;29;20380;-87
2024/03/31 10:06:02;;;;;;;56.70;43.03;;;;;;;10.97;100.00;99375.38;4918328;29;20048;-84
2024/03/31 10:08:31;;;;;;;53.17;40.92;;;;;;;11.02;100.00;99365.59;4893968;29;20052;-88
2024/03/31 10:11:02;;;;;;;51.28;40.35;;;;;;;11.13;100.00;99354.78;4895557;29;20056;-87
2024/03/31 10:13:29;;;;;;;63.05;45.10;;;;;;;11.08;100.00;99352.31;4922182;29;20067;-85
2024/03/31 10:15:56;;;;;;;55.92;39.70;;;;;;;11.28;100.00;99350.81;4889339;29;20063;-88
2024/03/31 10:18:26;;;;;;;52.85;40.50;;;;;;;11.79;100.00;99336.00;4919170;29;20517;-88
2024/03/31 10:20:56;;;;;;;49.10;39.47;;;;;;;12.36;100.00;99338.38;4917372;29;20056;-88
2024/03/31 10:23:23;;;;;;;52.55;38.10;;;;;;;12.41;100.00;99326.78;4908874;29;20044;-86
2024/03/31 10:25:53;;;;;;;52.58;39.50;;;;;;;13.12;100.00;99322.31;4921311;29;20209;-86
2024/03/31 10:28:20;;;;;;;51.17;39.35;;;;;;;14.15;100.00;99312.63;4904351;29;20112;-85
2024/03/31 10:30:46;;;;;;;48.83;37.03;;;;;;;14.69;100.00;99306.69;4905053;29;20052;-85
2024/03/31 10:33:12;;;;;;;48.28;37.85;;;;;;;16.15;87.83;99293.22;4894765;29;20076;-84
2024/03/31 10:35:44;;;;;;;45.50;36.10;;;;;;;16.66;87.61;99286.91;4908684;29;20048;-86
2024/03/31 10:38:13;;;;;;;47.00;36.72;;;;;;;15.77;90.07;99284.66;4924343;29;20115;-87
2024/03/31 10:40:40;;;;;;;42.75;33.53;;;;;;;16.30;86.88;99282.75;4911036;29;20166;-85
2024/03/31 10:43:07;;;;;;;39.30;33.30;;;;;;;17.41;85.37;99286.22;4907445;29;20100;-86
2024/03/31 10:45:37;;;;;;;38.80;32.28;;;;;;;18.91;78.64;99275.19;4894039;29;20056;-87
2024/03/31 10:48:05;;;;;;;39.63;32.65;;;;;;;20.40;70.32;99263.28;4889142;29;20104;-86
2024/03/31 10:50:32;;;;;;;34.08;29.58;;;;;;;21.70;64.74;99261.63;4899511;29;20079;-87
2024/03/31 10:52:58;;;;;;;39.50;30.20;;;;;;;22.09;61.10;99264.78;4906011;29;20068;-87
2024/03/31 10:56:26;;;;;;;;;;;;;;;;;;;;;
2024/03/31 10:59:41;;;;;;;29.95;24.58;;;;;;;21.69;55.17;99267.09;4911221;29;20044;-88
2024/03/31 11:05:35;;;;;;;27.00;22.83;;;;;;;21.93;53.46;99262.50;4924337;28;20071;-84
2024/03/31 11:08:02;;;;;;;25.15;21.25;;;;;;;23.18;52.71;99256.94;4926028;29;20115;-87
2024/03/31 11:10:32;;;;;;;26.38;22.65;;;;;;;23.15;51.02;99257.19;4910690;29;20044;-86
2024/03/31 11:12:58;;;;;;;23.70;21.20;;;;;;;23.46;49.72;99258.09;4900374;29;20063;-85
2024/03/31 11:15:28;;;;;;;20.27;18.08;;;;;;;22.06;49.59;99265.06;4905843;29;20078;-86
2024/03/31 11:17:54;;;;;;;20.83;18.55;;;;;;;20.25;54.29;99262.56;4924986;29;20048;-86
2024/03/31 11:20:21;;;;;;;19.88;17.88;;;;;;;19.70;54.39;99255.78;4906018;29;20147;-85
2024/03/31 11:22:53;;;;;;;23.67;18.15;;;;;;;21.20;54.09;99253.00;4903650;29;20043;-84
2024/03/31 11:25:21;;;;;;;19.63;17.52;;;;;;;22.82;50.27;99255.50;4903911;29;20096;-84
2024/03/31 11:27:47;;;;;;;17.55;14.00;;;;;;;24.00;48.44;99251.81;4885139;29;20044;-85
2024/03/31 11:30:19;;;;;;;23.20;16.70;;;;;;;23.98;47.29;99254.63;4886491;29;20044;-86
2024/03/31 11:32:51;;;;;;;16.30;14.60;;;;;;;24.73;46.56;99249.78;4899654;29;20040;-86